createdAt,value
2023-01-23T00:00:33.114Z,1028
2023-01-23T00:01:37.041Z,1028.1
2023-01-23T00:02:40.921Z,1028
2023-01-23T00:03:44.793Z,1028.1
2023-01-23T00:04:48.262Z,1028
2023-01-23T00:05:51.960Z,1028
2023-01-23T00:06:55.345Z,1028
2023-01-23T00:07:57.372Z,1028
2023-01-23T00:09:00.748Z,1028
2023-01-23T00:10:04.633Z,1028
2023-01-23T00:11:08.251Z,1028
2023-01-23T00:12:11.634Z,1028.1
2023-01-23T00:13:15.529Z,1028.1
2023-01-23T00:14:19.476Z,1028.1
2023-01-23T00:15:23.267Z,1028.1
2023-01-23T00:16:26.680Z,1028.1
2023-01-23T00:17:30.597Z,1028.1
2023-01-23T00:18:34.109Z,1028.1
2023-01-23T00:19:36.815Z,1028.1
2023-01-23T00:20:39.292Z,1028.1
2023-01-23T00:21:42.370Z,1028.1
2023-01-23T00:22:45.462Z,1028
2023-01-23T00:23:48.463Z,1028
2023-01-23T00:24:51.609Z,1028.1
2023-01-23T00:25:54.632Z,1028.1
2023-01-23T00:26:56.840Z,1028.1
2023-01-23T00:27:59.839Z,1028.1
2023-01-23T00:29:03.553Z,1028.1
2023-01-23T00:30:06.871Z,1028.1
2023-01-23T00:31:10.987Z,1028.1
2023-01-23T00:32:14.786Z,1028.2
2023-01-23T00:33:18.395Z,1028.1
2023-01-23T00:34:21.396Z,1028.1
2023-01-23T00:35:24.146Z,1028.1
2023-01-23T00:36:27.782Z,1028.1
2023-01-23T00:37:29.950Z,1028.1
2023-01-23T00:38:33.716Z,1028.1
2023-01-23T00:39:36.728Z,1028.1
2023-01-23T00:40:40.497Z,1028.1
2023-01-23T00:41:44.155Z,1028.1
2023-01-23T00:42:47.253Z,1028.1
2023-01-23T00:43:50.771Z,1028.1
2023-01-23T00:44:54.638Z,1028.2
2023-01-23T00:45:57.774Z,1028.2
2023-01-23T00:47:01.303Z,1028.2
2023-01-23T00:48:05.445Z,1028.2
2023-01-23T00:49:08.779Z,1028.2
2023-01-23T00:50:11.337Z,1028.2
2023-01-23T00:51:14.808Z,1028.2
2023-01-23T00:52:18.964Z,1028.3
2023-01-23T00:53:21.756Z,1028.3
2023-01-23T00:54:25.434Z,1028.3
2023-01-23T00:55:28.462Z,1028.3
2023-01-23T00:56:31.053Z,1028.3
2023-01-23T00:57:34.340Z,1028.3
2023-01-23T00:58:36.770Z,1028.3
2023-01-23T00:59:39.911Z,1028.3
2023-01-23T01:00:43.536Z,1028.4
2023-01-23T01:01:47.265Z,1028.4
2023-01-23T01:02:50.866Z,1028.4
2023-01-23T01:03:54.509Z,1028.4
2023-01-23T01:04:58.466Z,1028.4
2023-01-23T01:06:01.999Z,1028.5
2023-01-23T01:07:05.025Z,1028.5
2023-01-23T01:08:08.210Z,1028.4
2023-01-23T01:09:11.566Z,1028.5
2023-01-23T01:10:14.019Z,1028.5
2023-01-23T01:11:17.097Z,1028.5
2023-01-23T01:12:19.967Z,1028.6
2023-01-23T01:13:23.485Z,1028.6
2023-01-23T01:14:26.492Z,1028.6
2023-01-23T01:15:29.705Z,1028.5
2023-01-23T01:16:33.785Z,1028.5
2023-01-23T01:17:38.152Z,1028.5
2023-01-23T01:18:41.080Z,1028.5
2023-01-23T01:19:44.250Z,1028.4
2023-01-23T01:20:47.717Z,1028.4
2023-01-23T01:21:50.236Z,1028.4
2023-01-23T01:22:53.322Z,1028.4
2023-01-23T01:23:56.146Z,1028.4
2023-01-23T01:24:59.148Z,1028.4
2023-01-23T01:26:02.186Z,1028.5
2023-01-23T01:27:05.333Z,1028.5
2023-01-23T01:28:08.387Z,1028.5
2023-01-23T01:29:11.375Z,1028.5
2023-01-23T01:30:15.461Z,1028.5
2023-01-23T01:31:20.386Z,1028.5
2023-01-23T01:32:25.008Z,1028.5
2023-01-23T01:33:28.571Z,1028.5
2023-01-23T01:34:32.070Z,1028.6
2023-01-23T01:35:35.049Z,1028.5
2023-01-23T01:36:38.680Z,1028.5
2023-01-23T01:37:41.482Z,1028.5
2023-01-23T01:38:44.539Z,1028.6
2023-01-23T01:39:47.635Z,1028.6
2023-01-23T01:40:51.368Z,1028.6
2023-01-23T01:41:54.230Z,1028.7
2023-01-23T01:42:57.300Z,1028.7
2023-01-23T01:44:00.619Z,1028.7
2023-01-23T01:45:03.618Z,1028.7
2023-01-23T01:46:06.627Z,1028.7
2023-01-23T01:47:09.906Z,1028.7
2023-01-23T01:48:14.199Z,1028.7
2023-01-23T01:49:17.334Z,1028.7
2023-01-23T01:50:21.110Z,1028.7
2023-01-23T01:51:24.704Z,1028.8
2023-01-23T01:52:27.695Z,1028.8
2023-01-23T01:53:30.637Z,1028.8
2023-01-23T01:54:33.964Z,1028.7
2023-01-23T01:55:37.335Z,1028.8
2023-01-23T01:56:39.782Z,1028.8
2023-01-23T01:57:42.205Z,1028.8
2023-01-23T01:58:45.272Z,1028.8
2023-01-23T01:59:47.975Z,1028.8
2023-01-23T02:00:51.880Z,1028.8
2023-01-23T02:01:55.350Z,1028.8
2023-01-23T02:02:58.460Z,1028.8
2023-01-23T02:04:02.257Z,1028.8
2023-01-23T02:05:06.096Z,1028.8
2023-01-23T02:06:09.607Z,1028.8
2023-01-23T02:07:13.026Z,1028.8
2023-01-23T02:08:16.371Z,1028.8
2023-01-23T02:09:19.363Z,1028.8
2023-01-23T02:10:22.637Z,1028.8
2023-01-23T02:11:25.738Z,1028.8
2023-01-23T02:12:28.569Z,1028.8
2023-01-23T02:13:31.577Z,1028.8
2023-01-23T02:14:35.660Z,1028.9
2023-01-23T02:15:38.838Z,1028.9
2023-01-23T02:16:42.385Z,1028.9
2023-01-23T02:17:45.259Z,1028.9
2023-01-23T02:18:48.188Z,1028.9
2023-01-23T02:19:52.122Z,1028.9
2023-01-23T02:20:55.057Z,1028.9
2023-01-23T02:21:58.356Z,1028.9
2023-01-23T02:23:01.219Z,1028.9
2023-01-23T02:24:05.225Z,1028.9
2023-01-23T02:25:08.290Z,1028.9
2023-01-23T02:26:11.337Z,1028.9
2023-01-23T02:27:13.781Z,1028.9
2023-01-23T02:28:16.832Z,1028.9
2023-01-23T02:29:19.540Z,1029
2023-01-23T02:30:22.876Z,1029
2023-01-23T02:31:26.518Z,1029
2023-01-23T02:32:30.355Z,1029
2023-01-23T02:33:32.882Z,1029
2023-01-23T02:34:36.501Z,1029
2023-01-23T02:35:40.256Z,1029
2023-01-23T02:36:43.734Z,1029.1
2023-01-23T02:37:47.859Z,1029
2023-01-23T02:38:50.772Z,1029.1
2023-01-23T02:39:54.435Z,1029.1
2023-01-23T02:40:58.142Z,1029.1
2023-01-23T02:42:01.835Z,1029.1
2023-01-23T02:43:04.002Z,1029.1
2023-01-23T02:44:07.015Z,1029.1
2023-01-23T02:45:10.104Z,1029.1
2023-01-23T02:46:13.570Z,1029.1
2023-01-23T02:47:16.944Z,1029.2
2023-01-23T02:48:20.025Z,1029.2
2023-01-23T02:49:23.757Z,1029.2
2023-01-23T02:50:26.476Z,1029.2
2023-01-23T02:51:30.479Z,1029.2
2023-01-23T02:52:33.448Z,1029.2
2023-01-23T02:53:37.056Z,1029.2
2023-01-23T02:54:39.939Z,1029.2
2023-01-23T02:55:42.962Z,1029.2
2023-01-23T02:56:46.341Z,1029.2
2023-01-23T02:57:49.713Z,1029.2
2023-01-23T02:58:51.883Z,1029.2
2023-01-23T02:59:54.885Z,1029.2
2023-01-23T03:00:57.714Z,1029.2
2023-01-23T03:02:01.035Z,1029.2
2023-01-23T03:03:04.711Z,1029.2
2023-01-23T03:04:08.078Z,1029.2
2023-01-23T03:05:11.696Z,1029.1
2023-01-23T03:06:15.162Z,1029.1
2023-01-23T03:07:19.125Z,1029.1
2023-01-23T03:08:22.350Z,1029.1
2023-01-23T03:09:25.844Z,1029.1
2023-01-23T03:10:29.039Z,1029.1
2023-01-23T03:11:32.942Z,1029.1
2023-01-23T03:12:35.498Z,1029.1
2023-01-23T03:13:38.859Z,1029.1
2023-01-23T03:14:41.663Z,1029.1
2023-01-23T03:15:44.666Z,1029.1
2023-01-23T03:16:47.779Z,1029.1
2023-01-23T03:17:50.343Z,1029.2
2023-01-23T03:18:55.432Z,1029.1
2023-01-23T03:19:59.119Z,1029.2
2023-01-23T03:21:02.305Z,1029.1
2023-01-23T03:22:06.214Z,1029.2
2023-01-23T03:23:10.533Z,1029.2
2023-01-23T03:24:13.721Z,1029.2
2023-01-23T03:25:17.605Z,1029.2
2023-01-23T03:26:20.746Z,1029.2
2023-01-23T03:27:24.704Z,1029.2
2023-01-23T03:28:27.422Z,1029.2
2023-01-23T03:29:30.498Z,1029.1
2023-01-23T03:30:34.271Z,1029.1
2023-01-23T03:31:37.228Z,1029.2
2023-01-23T03:32:40.352Z,1029.1
2023-01-23T03:33:42.781Z,1029.1
2023-01-23T03:34:44.945Z,1029.2
2023-01-23T03:35:48.046Z,1029.1
2023-01-23T03:36:50.781Z,1029.2
2023-01-23T03:37:54.235Z,1029.1
2023-01-23T03:38:57.943Z,1029.2
2023-01-23T03:40:01.358Z,1029.2
2023-01-23T03:41:04.410Z,1029.2
2023-01-23T03:42:07.865Z,1029.2
2023-01-23T03:43:10.598Z,1029.2
2023-01-23T03:44:13.998Z,1029.2
2023-01-23T03:45:16.820Z,1029.2
2023-01-23T03:46:20.428Z,1029.2
2023-01-23T03:47:23.882Z,1029.2
2023-01-23T03:48:27.066Z,1029.2
2023-01-23T03:49:30.361Z,1029.2
2023-01-23T03:50:33.457Z,1029.2
2023-01-23T03:51:36.465Z,1029.2
2023-01-23T03:52:39.893Z,1029.2
2023-01-23T03:53:43.063Z,1029.2
2023-01-23T03:54:46.680Z,1029.2
2023-01-23T03:55:49.353Z,1029.2
2023-01-23T03:56:53.507Z,1029.2
2023-01-23T03:57:56.852Z,1029.2
2023-01-23T03:59:00.341Z,1029.2
2023-01-23T04:00:03.161Z,1029.2
2023-01-23T04:01:06.316Z,1029.3
2023-01-23T04:02:09.339Z,1029.2
2023-01-23T04:03:12.607Z,1029.3
2023-01-23T04:04:15.981Z,1029.3
2023-01-23T04:05:18.544Z,1029.3
2023-01-23T04:06:22.287Z,1029.3
2023-01-23T04:07:25.280Z,1029.3
2023-01-23T04:08:28.557Z,1029.3
2023-01-23T04:09:32.069Z,1029.3
2023-01-23T04:10:36.076Z,1029.3
2023-01-23T04:11:39.777Z,1029.3
2023-01-23T04:12:43.108Z,1029.4
2023-01-23T04:13:46.763Z,1029.3
2023-01-23T04:14:50.173Z,1029.3
2023-01-23T04:15:53.266Z,1029.3
2023-01-23T04:16:56.007Z,1029.3
2023-01-23T04:17:58.487Z,1029.3
2023-01-23T04:19:02.149Z,1029.3
2023-01-23T04:20:05.001Z,1029.3
2023-01-23T04:21:08.070Z,1029.3
2023-01-23T04:22:12.081Z,1029.4
2023-01-23T04:23:15.142Z,1029.4
2023-01-23T04:24:18.315Z,1029.4
2023-01-23T04:25:21.320Z,1029.4
2023-01-23T04:26:25.254Z,1029.3
2023-01-23T04:27:28.542Z,1029.4
2023-01-23T04:28:32.028Z,1029.4
2023-01-23T04:29:35.437Z,1029.4
2023-01-23T04:30:38.634Z,1029.4
2023-01-23T04:31:42.740Z,1029.4
2023-01-23T04:32:45.669Z,1029.4
2023-01-23T04:33:48.754Z,1029.3
2023-01-23T04:34:51.973Z,1029.3
2023-01-23T04:35:55.086Z,1029.4
2023-01-23T04:36:58.400Z,1029.3
2023-01-23T04:38:01.464Z,1029.4
2023-01-23T04:39:04.399Z,1029.4
2023-01-23T04:40:07.184Z,1029.3
2023-01-23T04:41:10.084Z,1029.4
2023-01-23T04:42:14.373Z,1029.4
2023-01-23T04:43:17.832Z,1029.4
2023-01-23T04:44:21.162Z,1029.4
2023-01-23T04:45:24.408Z,1029.4
2023-01-23T04:46:28.362Z,1029.4
2023-01-23T04:47:31.830Z,1029.4
2023-01-23T04:48:34.591Z,1029.4
2023-01-23T04:49:37.381Z,1029.5
2023-01-23T04:50:40.086Z,1029.5
2023-01-23T04:51:42.957Z,1029.4
2023-01-23T04:52:46.409Z,1029.5
2023-01-23T04:53:49.480Z,1029.5
2023-01-23T04:54:52.242Z,1029.5
2023-01-23T04:55:55.337Z,1029.5
2023-01-23T04:56:58.889Z,1029.4
2023-01-23T04:58:02.465Z,1029.5
2023-01-23T04:59:05.714Z,1029.5
2023-01-23T05:00:09.175Z,1029.5
2023-01-23T05:01:12.413Z,1029.5
2023-01-23T05:02:15.893Z,1029.5
2023-01-23T05:03:19.284Z,1029.5
2023-01-23T05:04:22.293Z,1029.5
2023-01-23T05:05:25.585Z,1029.5
2023-01-23T05:06:28.585Z,1029.5
2023-01-23T05:07:32.030Z,1029.5
2023-01-23T05:08:36.015Z,1029.5
2023-01-23T05:09:39.015Z,1029.5
2023-01-23T05:10:41.522Z,1029.5
2023-01-23T05:11:44.050Z,1029.5
2023-01-23T05:12:47.178Z,1029.5
2023-01-23T05:13:51.014Z,1029.5
2023-01-23T05:14:54.208Z,1029.5
2023-01-23T05:15:58.018Z,1029.5
2023-01-23T05:17:01.186Z,1029.5
2023-01-23T05:18:04.812Z,1029.6
2023-01-23T05:19:08.283Z,1029.6
2023-01-23T05:20:11.269Z,1029.6
2023-01-23T05:21:14.573Z,1029.6
2023-01-23T05:22:17.321Z,1029.6
2023-01-23T05:23:20.397Z,1029.6
2023-01-23T05:24:24.134Z,1029.6
2023-01-23T05:25:27.767Z,1029.5
2023-01-23T05:26:31.183Z,1029.6
2023-01-23T05:27:34.732Z,1029.6
2023-01-23T05:28:37.838Z,1029.6
2023-01-23T05:29:41.776Z,1029.6
2023-01-23T05:30:45.323Z,1029.6
2023-01-23T05:31:49.645Z,1029.5
2023-01-23T05:32:53.486Z,1029.6
2023-01-23T05:33:56.713Z,1029.6
2023-01-23T05:34:59.737Z,1029.6
2023-01-23T05:36:02.799Z,1029.6
2023-01-23T05:37:05.315Z,1029.6
2023-01-23T05:38:08.043Z,1029.6
2023-01-23T05:39:11.109Z,1029.6
2023-01-23T05:40:14.793Z,1029.6
2023-01-23T05:41:17.887Z,1029.6
2023-01-23T05:42:21.571Z,1029.6
2023-01-23T05:43:24.634Z,1029.6
2023-01-23T05:44:27.655Z,1029.6
2023-01-23T05:45:31.723Z,1029.7
2023-01-23T05:46:35.117Z,1029.7
2023-01-23T05:47:38.756Z,1029.7
2023-01-23T05:48:41.575Z,1029.7
2023-01-23T05:49:45.188Z,1029.7
2023-01-23T05:50:49.149Z,1029.7
2023-01-23T05:51:52.446Z,1029.7
2023-01-23T05:52:55.529Z,1029.8
2023-01-23T05:53:58.233Z,1029.8
2023-01-23T05:55:01.998Z,1029.8
2023-01-23T05:56:05.136Z,1029.9
2023-01-23T05:57:08.013Z,1029.9
2023-01-23T05:58:11.484Z,1029.9
2023-01-23T05:59:18.359Z,1029.9
2023-01-23T06:00:21.722Z,1029.9
2023-01-23T06:01:26.516Z,1029.9
2023-01-23T06:02:29.424Z,1029.9
2023-01-23T06:03:33.496Z,1029.9
2023-01-23T06:04:37.261Z,1029.9
2023-01-23T06:05:41.214Z,1029.9
2023-01-23T06:06:44.369Z,1029.9
2023-01-23T06:07:47.153Z,1029.9
2023-01-23T06:08:49.967Z,1030
2023-01-23T06:09:53.187Z,1030
2023-01-23T06:10:56.279Z,1030
2023-01-23T06:11:59.057Z,1030
2023-01-23T06:13:02.406Z,1030
2023-01-23T06:14:04.912Z,1030
2023-01-23T06:15:08.569Z,1030
2023-01-23T06:16:11.661Z,1030.1
2023-01-23T06:17:16.110Z,1030.1
2023-01-23T06:18:19.050Z,1030.1
2023-01-23T06:19:22.832Z,1030.1
2023-01-23T06:20:26.237Z,1030.1
2023-01-23T06:21:29.683Z,1030.2
2023-01-23T06:22:33.322Z,1030.2
2023-01-23T06:23:36.400Z,1030.2
2023-01-23T06:24:39.895Z,1030.1
2023-01-23T06:25:43.252Z,1030.2
2023-01-23T06:26:45.795Z,1030.2
2023-01-23T06:27:48.858Z,1030.2
2023-01-23T06:28:51.934Z,1030.2
2023-01-23T06:29:54.746Z,1030.2
2023-01-23T06:30:58.260Z,1030.2
2023-01-23T06:32:01.718Z,1030.2
2023-01-23T06:33:05.606Z,1030.2
2023-01-23T06:34:09.130Z,1030.2
2023-01-23T06:35:12.713Z,1030.2
2023-01-23T06:36:16.179Z,1030.2
2023-01-23T06:37:19.588Z,1030.2
2023-01-23T06:38:22.290Z,1030.2
2023-01-23T06:39:24.739Z,1030.2
2023-01-23T06:40:28.199Z,1030.3
2023-01-23T06:41:31.191Z,1030.3
2023-01-23T06:42:34.258Z,1030.3
2023-01-23T06:43:37.612Z,1030.3
2023-01-23T06:44:41.029Z,1030.4
2023-01-23T06:45:43.806Z,1030.4
2023-01-23T06:46:46.450Z,1030.4
2023-01-23T06:47:50.031Z,1030.4
2023-01-23T06:48:53.743Z,1030.4
2023-01-23T06:49:57.579Z,1030.5
2023-01-23T06:51:01.999Z,1030.4
2023-01-23T06:52:05.439Z,1030.4
2023-01-23T06:53:08.554Z,1030.4
2023-01-23T06:54:11.939Z,1030.5
2023-01-23T06:55:15.243Z,1030.5
2023-01-23T06:56:19.014Z,1030.5
2023-01-23T06:57:22.400Z,1030.5
2023-01-23T06:58:25.631Z,1030.5
2023-01-23T06:59:28.959Z,1030.5
2023-01-23T07:00:31.509Z,1030.5
2023-01-23T07:01:34.023Z,1030.5
2023-01-23T07:02:38.108Z,1030.5
2023-01-23T07:03:41.830Z,1030.6
2023-01-23T07:04:45.669Z,1030.6
2023-01-23T07:05:49.068Z,1030.6
2023-01-23T07:06:52.631Z,1030.6
2023-01-23T07:07:55.820Z,1030.6
2023-01-23T07:08:59.117Z,1030.6
2023-01-23T07:10:02.887Z,1030.6
2023-01-23T07:11:06.324Z,1030.7
2023-01-23T07:12:09.393Z,1030.7
2023-01-23T07:13:12.838Z,1030.6
2023-01-23T07:14:15.952Z,1030.7
2023-01-23T07:15:18.947Z,1030.7
2023-01-23T07:16:22.438Z,1030.7
2023-01-23T07:17:25.757Z,1030.7
2023-01-23T07:18:28.552Z,1030.7
2023-01-23T07:19:32.054Z,1030.6
2023-01-23T07:20:35.420Z,1030.6
2023-01-23T07:21:39.018Z,1030.7
2023-01-23T07:22:42.495Z,1030.7
2023-01-23T07:23:46.150Z,1030.7
2023-01-23T07:24:50.136Z,1030.7
2023-01-23T07:25:53.088Z,1030.7
2023-01-23T07:26:55.793Z,1030.8
2023-01-23T07:27:58.887Z,1030.8
2023-01-23T07:29:01.939Z,1030.8
2023-01-23T07:30:05.582Z,1030.9
2023-01-23T07:31:09.027Z,1030.9
2023-01-23T07:32:12.932Z,1030.9
2023-01-23T07:33:15.536Z,1030.9
2023-01-23T07:34:18.273Z,1030.9
2023-01-23T07:35:21.091Z,1030.9
2023-01-23T07:36:25.247Z,1030.9
2023-01-23T07:37:28.351Z,1030.9
2023-01-23T07:38:32.165Z,1030.9
2023-01-23T07:39:35.937Z,1030.9
2023-01-23T07:40:39.631Z,1030.9
2023-01-23T07:41:46.439Z,1031
2023-01-23T07:42:49.606Z,1030.9
2023-01-23T07:43:52.463Z,1030.9
2023-01-23T07:44:55.723Z,1031
2023-01-23T07:45:58.592Z,1031
2023-01-23T07:47:01.433Z,1031
2023-01-23T07:48:04.840Z,1031
2023-01-23T07:49:08.111Z,1030.9
2023-01-23T07:50:11.757Z,1030.9
2023-01-23T07:51:15.359Z,1030.9
2023-01-23T07:52:19.661Z,1030.9
2023-01-23T07:53:22.794Z,1030.9
2023-01-23T07:54:26.284Z,1031
2023-01-23T07:55:29.799Z,1030.9
2023-01-23T07:56:33.453Z,1030.9
2023-01-23T07:57:37.449Z,1031
2023-01-23T07:58:41.188Z,1031
2023-01-23T07:59:44.048Z,1031
2023-01-23T08:00:47.469Z,1031
2023-01-23T08:01:50.973Z,1031
2023-01-23T08:02:54.657Z,1031
2023-01-23T08:03:57.777Z,1031.1
2023-01-23T08:05:01.892Z,1031.1
2023-01-23T08:06:05.097Z,1031.1
2023-01-23T08:07:07.719Z,1031.1
2023-01-23T08:08:14.488Z,1031.1
2023-01-23T08:09:18.066Z,1031.1
2023-01-23T08:10:22.836Z,1031.1
2023-01-23T08:11:26.628Z,1031.1
2023-01-23T08:12:30.121Z,1031.1
2023-01-23T08:13:32.991Z,1031.1
2023-01-23T08:14:36.274Z,1031.1
2023-01-23T08:15:39.465Z,1031.1
2023-01-23T08:16:42.400Z,1031.1
2023-01-23T08:17:46.188Z,1031.1
2023-01-23T08:18:48.630Z,1031.2
2023-01-23T08:19:52.350Z,1031.2
2023-01-23T08:20:55.204Z,1031.2
2023-01-23T08:21:57.919Z,1031.2
2023-01-23T08:23:01.195Z,1031.2
2023-01-23T08:24:05.591Z,1031.2
2023-01-23T08:25:08.819Z,1031.2
2023-01-23T08:26:12.055Z,1031.2
2023-01-23T08:27:15.511Z,1031.2
2023-01-23T08:28:18.853Z,1031.2
2023-01-23T08:29:22.840Z,1031.2
2023-01-23T08:30:26.487Z,1031.2
2023-01-23T08:31:30.403Z,1031.2
2023-01-23T08:32:34.540Z,1031.2
2023-01-23T08:33:37.039Z,1031.2
2023-01-23T08:34:40.756Z,1031.3
2023-01-23T08:35:44.440Z,1031.3
2023-01-23T08:36:47.908Z,1031.3
2023-01-23T08:37:50.891Z,1031.3
2023-01-23T08:38:53.855Z,1031.3
2023-01-23T08:39:57.831Z,1031.3
2023-01-23T08:41:01.113Z,1031.4
2023-01-23T08:42:05.117Z,1031.4
2023-01-23T08:43:08.941Z,1031.4
2023-01-23T08:44:12.196Z,1031.4
2023-01-23T08:45:15.562Z,1031.4
2023-01-23T08:46:19.268Z,1031.4
2023-01-23T08:47:21.713Z,1031.4
2023-01-23T08:48:25.510Z,1031.3
2023-01-23T08:49:28.828Z,1031.4
2023-01-23T08:50:32.247Z,1031.4
2023-01-23T08:51:35.254Z,1031.4
2023-01-23T08:52:39.298Z,1031.4
2023-01-23T08:53:42.411Z,1031.4
2023-01-23T08:54:45.552Z,1031.4
2023-01-23T08:55:49.454Z,1031.4
2023-01-23T08:56:53.223Z,1031.4
2023-01-23T08:57:56.514Z,1031.4
2023-01-23T08:59:00.265Z,1031.5
2023-01-23T09:00:03.889Z,1031.4
2023-01-23T09:01:07.435Z,1031.4
2023-01-23T09:02:11.668Z,1031.5
2023-01-23T09:03:15.059Z,1031.4
2023-01-23T09:04:18.516Z,1031.5
2023-01-23T09:05:21.786Z,1031.5
2023-01-23T09:06:24.855Z,1031.5
2023-01-23T09:07:28.534Z,1031.5
2023-01-23T09:08:31.663Z,1031.5
2023-01-23T09:09:38.019Z,1031.6
2023-01-23T09:10:41.239Z,1031.5
2023-01-23T09:11:44.810Z,1031.5
2023-01-23T09:12:48.196Z,1031.6
2023-01-23T09:13:54.347Z,1031.6
2023-01-23T09:14:57.098Z,1031.5
2023-01-23T09:16:00.429Z,1031.6
2023-01-23T09:17:04.137Z,1031.6
2023-01-23T09:18:07.515Z,1031.6
2023-01-23T09:19:10.533Z,1031.6
2023-01-23T09:20:14.352Z,1031.6
2023-01-23T09:21:17.787Z,1031.6
2023-01-23T09:22:21.428Z,1031.7
2023-01-23T09:23:24.520Z,1031.7
2023-01-23T09:24:28.172Z,1031.7
2023-01-23T09:25:31.989Z,1031.7
2023-01-23T09:26:34.918Z,1031.6
2023-01-23T09:27:38.826Z,1031.6
2023-01-23T09:28:42.129Z,1031.6
2023-01-23T09:29:46.228Z,1031.7
2023-01-23T09:30:49.535Z,1031.7
2023-01-23T09:31:53.277Z,1031.7
2023-01-23T09:32:56.572Z,1031.7
2023-01-23T09:33:59.020Z,1031.7
2023-01-23T09:35:02.108Z,1031.7
2023-01-23T09:36:05.568Z,1031.7
2023-01-23T09:37:08.928Z,1031.7
2023-01-23T09:38:12.417Z,1031.7
2023-01-23T09:39:15.776Z,1031.7
2023-01-23T09:40:20.427Z,1031.7
2023-01-23T09:41:25.024Z,1031.7
2023-01-23T09:42:28.240Z,1031.7
2023-01-23T09:43:32.617Z,1031.6
2023-01-23T09:44:36.237Z,1031.7
2023-01-23T09:45:39.921Z,1031.7
2023-01-23T09:46:43.130Z,1031.7
2023-01-23T09:47:47.366Z,1031.7
2023-01-23T09:48:50.831Z,1031.7
2023-01-23T09:49:53.662Z,1031.7
2023-01-23T09:50:57.206Z,1031.7
2023-01-23T09:52:00.199Z,1031.7
2023-01-23T09:53:03.575Z,1031.7
2023-01-23T09:54:07.198Z,1031.7
2023-01-23T09:55:10.722Z,1031.7
2023-01-23T09:56:13.541Z,1031.7
2023-01-23T09:57:16.773Z,1031.7
2023-01-23T09:58:20.179Z,1031.7
2023-01-23T09:59:23.948Z,1031.7
2023-01-23T10:00:27.546Z,1031.7
2023-01-23T10:01:31.242Z,1031.7
2023-01-23T10:02:34.956Z,1031.7
2023-01-23T10:03:38.562Z,1031.7
2023-01-23T10:04:42.146Z,1031.7
2023-01-23T10:05:45.591Z,1031.7
2023-01-23T10:06:48.941Z,1031.7
2023-01-23T10:07:52.309Z,1031.6
2023-01-23T10:08:55.664Z,1031.6
2023-01-23T10:10:01.082Z,1031.6
2023-01-23T10:11:05.728Z,1031.6
2023-01-23T10:12:09.084Z,1031.6
2023-01-23T10:13:13.053Z,1031.7
2023-01-23T10:14:19.862Z,1031.7
2023-01-23T10:15:23.602Z,1031.7
2023-01-23T10:16:44.919Z,1031.7
2023-01-23T10:17:55.217Z,1031.7
2023-01-23T10:19:01.321Z,1031.7
2023-01-23T10:20:04.733Z,1031.7
2023-01-23T10:21:08.427Z,1031.7
2023-01-23T10:22:23.343Z,1031.6
2023-01-23T10:23:26.703Z,1031.6
2023-01-23T10:24:30.265Z,1031.7
2023-01-23T10:25:42.798Z,1031.6
2023-01-23T10:26:46.395Z,1031.6
2023-01-23T10:27:49.659Z,1031.7
2023-01-23T10:28:53.731Z,1031.6
2023-01-23T10:29:57.556Z,1031.6
2023-01-23T10:31:02.030Z,1031.7
2023-01-23T10:32:05.780Z,1031.6
2023-01-23T10:33:08.615Z,1031.7
2023-01-23T10:34:12.537Z,1031.7
2023-01-23T10:35:15.850Z,1031.6
2023-01-23T10:36:25.261Z,1031.7
2023-01-23T10:37:56.504Z,1031.7
2023-01-23T10:38:59.860Z,1031.7
2023-01-23T10:40:03.294Z,1031.7
2023-01-23T10:41:05.750Z,1031.7
2023-01-23T10:42:08.463Z,1031.7
2023-01-23T10:43:12.191Z,1031.8
2023-01-23T10:44:15.271Z,1031.7
2023-01-23T10:45:19.674Z,1031.7
2023-01-23T10:46:25.364Z,1031.8
2023-01-23T10:47:34.422Z,1031.7
2023-01-23T10:48:46.904Z,1031.7
2023-01-23T10:49:50.968Z,1031.7
2023-01-23T10:50:54.182Z,1031.7
2023-01-23T10:51:57.151Z,1031.7
2023-01-23T10:53:00.671Z,1031.6
2023-01-23T10:54:07.192Z,1031.6
2023-01-23T10:55:34.910Z,1031.6
2023-01-23T10:56:38.143Z,1031.6
2023-01-23T10:57:43.935Z,1031.6
2023-01-23T10:58:47.124Z,1031.6
2023-01-23T10:59:50.485Z,1031.6
2023-01-23T11:00:54.305Z,1031.6
2023-01-23T11:01:58.672Z,1031.6
2023-01-23T11:03:03.287Z,1031.6
2023-01-23T11:04:07.256Z,1031.6
2023-01-23T11:05:10.843Z,1031.6
2023-01-23T11:06:14.850Z,1031.6
2023-01-23T11:07:18.243Z,1031.6
2023-01-23T11:08:20.705Z,1031.6
2023-01-23T11:09:23.233Z,1031.6
2023-01-23T11:10:26.570Z,1031.5
2023-01-23T11:11:29.571Z,1031.5
2023-01-23T11:12:32.488Z,1031.6
2023-01-23T11:13:35.864Z,1031.5
2023-01-23T11:14:39.884Z,1031.6
2023-01-23T11:15:43.806Z,1031.6
2023-01-23T11:16:47.655Z,1031.6
2023-01-23T11:17:51.605Z,1031.6
2023-01-23T11:18:54.880Z,1031.6
2023-01-23T11:19:57.969Z,1031.6
2023-01-23T11:21:02.039Z,1031.6
2023-01-23T11:22:05.703Z,1031.6
2023-01-23T11:23:08.149Z,1031.6
2023-01-23T11:24:11.643Z,1031.6
2023-01-23T11:25:15.004Z,1031.6
2023-01-23T11:26:18.351Z,1031.6
2023-01-23T11:27:21.368Z,1031.7
2023-01-23T11:28:24.781Z,1031.7
2023-01-23T11:29:27.509Z,1031.7
2023-01-23T11:30:30.636Z,1031.7
2023-01-23T11:31:34.802Z,1031.7
2023-01-23T11:32:39.519Z,1031.7
2023-01-23T11:33:43.219Z,1031.7
2023-01-23T11:34:47.348Z,1031.6
2023-01-23T11:35:51.492Z,1031.6
2023-01-23T11:36:55.579Z,1031.7
2023-01-23T11:37:58.735Z,1031.6
2023-01-23T11:39:02.067Z,1031.6
2023-01-23T11:40:06.316Z,1031.6
2023-01-23T11:41:09.401Z,1031.6
2023-01-23T11:42:12.238Z,1031.6
2023-01-23T11:43:15.672Z,1031.6
2023-01-23T11:44:20.062Z,1031.6
2023-01-23T11:45:47.878Z,1031.6
2023-01-23T11:46:50.835Z,1031.6
2023-01-23T11:47:54.009Z,1031.5
2023-01-23T11:48:58.036Z,1031.6
2023-01-23T11:50:01.625Z,1031.5
2023-01-23T11:51:05.668Z,1031.6
2023-01-23T11:52:09.259Z,1031.5
2023-01-23T11:53:12.873Z,1031.5
2023-01-23T11:54:16.760Z,1031.5
2023-01-23T11:55:21.485Z,1031.5
2023-01-23T11:56:25.652Z,1031.5
2023-01-23T11:57:29.013Z,1031.5
2023-01-23T11:58:37.226Z,1031.5
2023-01-23T11:59:53.044Z,1031.4
2023-01-23T12:00:55.816Z,1031.4
2023-01-23T12:02:04.172Z,1031.4
2023-01-23T12:03:08.998Z,1031.4
2023-01-23T12:04:12.762Z,1031.4
2023-01-23T12:05:16.830Z,1031.5
2023-01-23T12:06:21.163Z,1031.4
2023-01-23T12:07:24.465Z,1031.4
2023-01-23T12:08:28.212Z,1031.4
2023-01-23T12:09:31.174Z,1031.5
2023-01-23T12:10:33.626Z,1031.5
2023-01-23T12:11:36.954Z,1031.5
2023-01-23T12:12:40.298Z,1031.4
2023-01-23T12:13:43.767Z,1031.4
2023-01-23T12:14:47.513Z,1031.5
2023-01-23T12:15:51.093Z,1031.5
2023-01-23T12:16:54.826Z,1031.4
2023-01-23T12:17:58.009Z,1031.5
2023-01-23T12:19:02.073Z,1031.5
2023-01-23T12:20:05.875Z,1031.5
2023-01-23T12:21:09.109Z,1031.5
2023-01-23T12:22:12.475Z,1031.5
2023-01-23T12:23:15.829Z,1031.5
2023-01-23T12:24:19.634Z,1031.5
2023-01-23T12:25:23.657Z,1031.6
2023-01-23T12:26:27.044Z,1031.6
2023-01-23T12:27:29.594Z,1031.6
2023-01-23T12:28:33.070Z,1031.5
2023-01-23T12:29:36.452Z,1031.5
2023-01-23T12:30:39.563Z,1031.5
2023-01-23T12:31:43.148Z,1031.5
2023-01-23T12:32:47.440Z,1031.5
2023-01-23T12:33:50.605Z,1031.5
2023-01-23T12:34:53.660Z,1031.6
2023-01-23T12:35:57.242Z,1031.6
2023-01-23T12:37:25.729Z,1031.6
2023-01-23T12:38:35.056Z,1031.6
2023-01-23T12:39:38.517Z,1031.6
2023-01-23T12:40:42.150Z,1031.6
2023-01-23T12:41:45.793Z,1031.6
2023-01-23T12:42:48.798Z,1031.6
2023-01-23T12:43:55.052Z,1031.6
2023-01-23T12:44:58.477Z,1031.6
2023-01-23T12:46:01.888Z,1031.6
2023-01-23T12:47:05.177Z,1031.6
2023-01-23T12:48:08.587Z,1031.7
2023-01-23T12:49:12.315Z,1031.6
2023-01-23T12:50:15.710Z,1031.7
2023-01-23T12:51:20.372Z,1031.6
2023-01-23T12:52:23.876Z,1031.6
2023-01-23T12:53:26.824Z,1031.6
2023-01-23T12:54:30.666Z,1031.6
2023-01-23T12:55:34.030Z,1031.6
2023-01-23T12:56:37.208Z,1031.6
2023-01-23T12:58:07.878Z,1031.6
2023-01-23T12:59:12.784Z,1031.6
2023-01-23T13:00:16.280Z,1031.6
2023-01-23T13:01:18.845Z,1031.7
2023-01-23T13:02:22.854Z,1031.7
2023-01-23T13:03:45.649Z,1031.7
2023-01-23T13:04:50.504Z,1031.7
2023-01-23T13:05:53.695Z,1031.8
2023-01-23T13:06:57.728Z,1031.7
2023-01-23T13:08:01.245Z,1031.8
2023-01-23T13:09:18.873Z,1031.8
2023-01-23T13:10:23.982Z,1031.8
2023-01-23T13:11:28.014Z,1031.9
2023-01-23T13:12:31.230Z,1031.8
2023-01-23T13:13:33.745Z,1031.8
2023-01-23T13:15:13.295Z,1031.9
2023-01-23T13:16:44.031Z,1031.8
2023-01-23T13:17:47.423Z,1031.8
2023-01-23T13:18:50.622Z,1031.8